sensor_id;sensor_type;location;lat;lon;timestamp;temperature;humidity
44851;DHT22;30583;48.714;9.386;2023-06-14T00:01:18;23.00;35.20
44851;DHT22;30583;48.714;9.386;2023-06-14T00:03:45;22.90;35.40
44851;DHT22;30583;48.714;9.386;2023-06-14T00:06:12;22.80;35.50
44851;DHT22;30583;48.714;9.386;2023-06-14T00:08:38;22.90;35.40
44851;DHT22;30583;48.714;9.386;2023-06-14T00:11:05;23.00;35.30
44851;DHT22;30583;48.714;9.386;2023-06-14T00:13:31;22.90;35.40
44851;DHT22;30583;48.714;9.386;2023-06-14T00:15:56;22.80;35.60
44851;DHT22;30583;48.714;9.386;2023-06-14T00:18:23;22.80;35.60
44851;DHT22;30583;48.714;9.386;2023-06-14T00:20:55;22.70;35.70
44851;DHT22;30583;48.714;9.386;2023-06-14T00:23:21;22.80;35.80
44851;DHT22;30583;48.714;9.386;2023-06-14T00:25:46;22.80;35.50
44851;DHT22;30583;48.714;9.386;2023-06-14T00:28:12;22.80;35.40
44851;DHT22;30583;48.714;9.386;2023-06-14T00:30:38;22.90;35.40
44851;DHT22;30583;48.714;9.386;2023-06-14T00:33:03;22.90;35.30
44851;DHT22;30583;48.714;9.386;2023-06-14T00:35:29;22.70;35.50
44851;DHT22;30583;48.714;9.386;2023-06-14T00:37:55;22.70;35.60
44851;DHT22;30583;48.714;9.386;2023-06-14T00:40:21;22.70;35.40
44851;DHT22;30583;48.714;9.386;2023-06-14T00:42:47;22.90;35.30
44851;DHT22;30583;48.714;9.386;2023-06-14T00:45:13;22.80;35.50
44851;DHT22;30583;48.714;9.386;2023-06-14T00:47:41;22.60;36.20
44851;DHT22;30583;48.714;9.386;2023-06-14T00:50:09;22.50;36.40
44851;DHT22;30583;48.714;9.386;2023-06-14T00:52:35;22.50;36.90
44851;DHT22;30583;48.714;9.386;2023-06-14T00:55:02;22.50;36.50
44851;DHT22;30583;48.714;9.386;2023-06-14T00:57:27;22.40;36.70
44851;DHT22;30583;48.714;9.386;2023-06-14T00:59:55;22.40;36.80
44851;DHT22;30583;48.714;9.386;2023-06-14T01:02:21;22.30;37.20
44851;DHT22;30583;48.714;9.386;2023-06-14T01:04:47;22.30;37.30
44851;DHT22;30583;48.714;9.386;2023-06-14T01:13:12;22.10;37.40
44851;DHT22;30583;48.714;9.386;2023-06-14T01:15:43;22.40;37.00
44851;DHT22;30583;48.714;9.386;2023-06-14T01:18:09;22.40;37.00
44851;DHT22;30583;48.714;9.386;2023-06-14T01:20:42;22.40;36.90
44851;DHT22;30583;48.714;9.386;2023-06-14T01:23:10;22.20;37.10
44851;DHT22;30583;48.714;9.386;2023-06-14T01:25:37;22.20;37.20
44851;DHT22;30583;48.714;9.386;2023-06-14T01:28:05;22.20;37.20
44851;DHT22;30583;48.714;9.386;2023-06-14T01:30:39;22.10;37.40
44851;DHT22;30583;48.714;9.386;2023-06-14T01:33:08;22.00;37.70
44851;DHT22;30583;48.714;9.386;2023-06-14T01:35:34;22.10;37.50
44851;DHT22;30583;48.714;9.386;2023-06-14T01:38:00;22.20;37.30
44851;DHT22;30583;48.714;9.386;2023-06-14T01:40:26;22.20;37.40
44851;DHT22;30583;48.714;9.386;2023-06-14T01:42:53;22.10;37.60
44851;DHT22;30583;48.714;9.386;2023-06-14T01:45:19;22.30;37.30
44851;DHT22;30583;48.714;9.386;2023-06-14T01:47:45;22.30;37.40
44851;DHT22;30583;48.714;9.386;2023-06-14T01:50:11;22.20;37.50
44851;DHT22;30583;48.714;9.386;2023-06-14T01:52:38;22.00;38.20
44851;DHT22;30583;48.714;9.386;2023-06-14T01:55:07;22.00;38.70
44851;DHT22;30583;48.714;9.386;2023-06-14T01:57:33;21.90;39.00
44851;DHT22;30583;48.714;9.386;2023-06-14T01:59:59;21.80;39.00
44851;DHT22;30583;48.714;9.386;2023-06-14T02:02:24;21.50;39.80
44851;DHT22;30583;48.714;9.386;2023-06-14T02:04:50;21.60;39.50
44851;DHT22;30583;48.714;9.386;2023-06-14T02:07:15;21.20;40.60
44851;DHT22;30583;48.714;9.386;2023-06-14T02:09:41;20.80;41.30
44851;DHT22;30583;48.714;9.386;2023-06-14T02:12:07;20.50;41.90
44851;DHT22;30583;48.714;9.386;2023-06-14T02:14:33;20.50;42.00
44851;DHT22;30583;48.714;9.386;2023-06-14T02:16:59;20.50;42.00
44851;DHT22;30583;48.714;9.386;2023-06-14T02:19:26;20.40;42.00
44851;DHT22;30583;48.714;9.386;2023-06-14T02:21:52;19.90;42.80
44851;DHT22;30583;48.714;9.386;2023-06-14T02:24:17;19.80;43.00
44851;DHT22;30583;48.714;9.386;2023-06-14T02:26:43;19.80;42.80
44851;DHT22;30583;48.714;9.386;2023-06-14T02:29:08;19.70;43.00
44851;DHT22;30583;48.714;9.386;2023-06-14T02:31:36;19.50;43.50
44851;DHT22;30583;48.714;9.386;2023-06-14T02:34:02;19.30;44.00
44851;DHT22;30583;48.714;9.386;2023-06-14T02:36:28;19.10;44.70
44851;DHT22;30583;48.714;9.386;2023-06-14T02:38:57;18.90;45.20
44851;DHT22;30583;48.714;9.386;2023-06-14T02:41:26;18.90;45.50
44851;DHT22;30583;48.714;9.386;2023-06-14T02:43:55;19.30;44.60
44851;DHT22;30583;48.714;9.386;2023-06-14T02:46:21;19.00;45.00
44851;DHT22;30583;48.714;9.386;2023-06-14T02:48:47;18.70;45.70
44851;DHT22;30583;48.714;9.386;2023-06-14T02:51:12;18.30;46.60
44851;DHT22;30583;48.714;9.386;2023-06-14T02:53:38;18.60;46.00
44851;DHT22;30583;48.714;9.386;2023-06-14T02:56:04;18.70;45.90
44851;DHT22;30583;48.714;9.386;2023-06-14T02:58:30;18.70;45.90
44851;DHT22;30583;48.714;9.386;2023-06-14T03:00:56;18.70;45.70
44851;DHT22;30583;48.714;9.386;2023-06-14T03:03:21;18.50;45.90
44851;DHT22;30583;48.714;9.386;2023-06-14T03:05:50;18.30;46.60
44851;DHT22;30583;48.714;9.386;2023-06-14T03:08:17;17.50;48.30
44851;DHT22;30583;48.714;9.386;2023-06-14T03:10:46;17.80;47.40
44851;DHT22;30583;48.714;9.386;2023-06-14T03:13:12;18.10;47.00
44851;DHT22;30583;48.714;9.386;2023-06-14T03:15:37;17.60;48.00
44851;DHT22;30583;48.714;9.386;2023-06-14T03:18:04;17.90;47.20
44851;DHT22;30583;48.714;9.386;2023-06-14T03:20:30;17.60;48.20
44851;DHT22;30583;48.714;9.386;2023-06-14T03:23:01;18.00;47.20
44851;DHT22;30583;48.714;9.386;2023-06-14T03:25:27;17.70;47.90
44851;DHT22;30583;48.714;9.386;2023-06-14T03:27:55;17.80;47.50
44851;DHT22;30583;48.714;9.386;2023-06-14T03:30:21;17.70;48.00
44851;DHT22;30583;48.714;9.386;2023-06-14T03:32:46;18.10;47.30
44851;DHT22;30583;48.714;9.386;2023-06-14T03:35:12;18.20;47.00
44851;DHT22;30583;48.714;9.386;2023-06-14T03:37:43;18.50;46.30
44851;DHT22;30583;48.714;9.386;2023-06-14T03:40:09;18.50;46.90
44851;DHT22;30583;48.714;9.386;2023-06-14T03:42:34;18.70;47.10
44851;DHT22;30583;48.714;9.386;2023-06-14T03:45:00;18.40;47.40
44851;DHT22;30583;48.714;9.386;2023-06-14T03:47:25;18.20;47.80
44851;DHT22;30583;48.714;9.386;2023-06-14T03:49:52;17.90;48.90
44851;DHT22;30583;48.714;9.386;2023-06-14T03:52:18;17.70;48.70
44851;DHT22;30583;48.714;9.386;2023-06-14T03:54:43;17.00;50.40
44851;DHT22;30583;48.714;9.386;2023-06-14T03:57:09;17.60;49.10
44851;DHT22;30583;48.714;9.386;2023-06-14T03:59:36;17.60;48.50
44851;DHT22;30583;48.714;9.386;2023-06-14T04:02:02;17.20;50.30
44851;DHT22;30583;48.714;9.386;2023-06-14T04:04:28;17.60;49.20
44851;DHT22;30583;48.714;9.386;2023-06-14T04:06:55;17.70;49.00
44851;DHT22;30583;48.714;9.386;2023-06-14T04:09:20;17.80;48.50
44851;DHT22;30583;48.714;9.386;2023-06-14T04:11:46;17.70;48.60
44851;DHT22;30583;48.714;9.386;2023-06-14T04:14:11;17.70;48.70
44851;DHT22;30583;48.714;9.386;2023-06-14T04:16:37;18.10;48.00
44851;DHT22;30583;48.714;9.386;2023-06-14T04:19:03;18.00;49.00
44851;DHT22;30583;48.714;9.386;2023-06-14T04:21:28;17.90;49.00
44851;DHT22;30583;48.714;9.386;2023-06-14T04:23:54;18.20;48.40
44851;DHT22;30583;48.714;9.386;2023-06-14T04:26:21;18.10;48.50
44851;DHT22;30583;48.714;9.386;2023-06-14T04:28:49;18.10;48.70
44851;DHT22;30583;48.714;9.386;2023-06-14T04:31:16;18.10;49.20
44851;DHT22;30583;48.714;9.386;2023-06-14T04:33:42;18.70;50.70
44851;DHT22;30583;48.714;9.386;2023-06-14T04:36:12;18.80;51.50
44851;DHT22;30583;48.714;9.386;2023-06-14T04:38:39;19.30;51.50
44851;DHT22;30583;48.714;9.386;2023-06-14T04:41:04;19.20;49.90
44851;DHT22;30583;48.714;9.386;2023-06-14T04:43:31;19.30;50.70
44851;DHT22;30583;48.714;9.386;2023-06-14T04:46:06;19.30;50.40
44851;DHT22;30583;48.714;9.386;2023-06-14T04:48:40;19.40;51.60
44851;DHT22;30583;48.714;9.386;2023-06-14T04:51:08;19.50;50.20
44851;DHT22;30583;48.714;9.386;2023-06-14T04:53:35;19.50;48.80
44851;DHT22;30583;48.714;9.386;2023-06-14T04:56:00;19.20;48.20
44851;DHT22;30583;48.714;9.386;2023-06-14T04:58:27;21.00;54.90
44851;DHT22;30583;48.714;9.386;2023-06-14T05:00:54;21.60;52.80
44851;DHT22;30583;48.714;9.386;2023-06-14T05:03:21;21.20;44.40
44851;DHT22;30583;48.714;9.386;2023-06-14T05:05:47;20.40;53.50
44851;DHT22;30583;48.714;9.386;2023-06-14T05:08:12;21.10;47.60
44851;DHT22;30583;48.714;9.386;2023-06-14T05:10:38;19.30;48.90
44851;DHT22;30583;48.714;9.386;2023-06-14T05:13:03;21.10;47.70
44851;DHT22;30583;48.714;9.386;2023-06-14T05:15:29;21.70;45.30
44851;DHT22;30583;48.714;9.386;2023-06-14T05:17:55;21.80;44.90
44851;DHT22;30583;48.714;9.386;2023-06-14T05:20:24;21.70;43.40
44851;DHT22;30583;48.714;9.386;2023-06-14T05:22:53;19.90;44.70
44851;DHT22;30583;48.714;9.386;2023-06-14T05:25:20;19.00;46.40
44851;DHT22;30583;48.714;9.386;2023-06-14T05:27:46;18.70;47.40
44851;DHT22;30583;48.714;9.386;2023-06-14T05:30:14;18.40;49.30
44851;DHT22;30583;48.714;9.386;2023-06-14T05:32:39;18.20;50.40
44851;DHT22;30583;48.714;9.386;2023-06-14T05:35:06;18.10;51.00
44851;DHT22;30583;48.714;9.386;2023-06-14T05:37:32;18.30;50.00
44851;DHT22;30583;48.714;9.386;2023-06-14T05:39:57;18.50;50.00
44851;DHT22;30583;48.714;9.386;2023-06-14T05:42:23;18.60;49.80
44851;DHT22;30583;48.714;9.386;2023-06-14T05:44:49;18.70;49.40
44851;DHT22;30583;48.714;9.386;2023-06-14T05:47:14;18.70;49.30
44851;DHT22;30583;48.714;9.386;2023-06-14T05:49:40;18.90;49.10
44851;DHT22;30583;48.714;9.386;2023-06-14T05:52:06;19.00;48.70
44851;DHT22;30583;48.714;9.386;2023-06-14T05:54:32;19.00;48.70
44851;DHT22;30583;48.714;9.386;2023-06-14T05:56:58;18.70;49.40
44851;DHT22;30583;48.714;9.386;2023-06-14T05:59:27;18.70;49.60
44851;DHT22;30583;48.714;9.386;2023-06-14T06:01:52;18.80;49.30
44851;DHT22;30583;48.714;9.386;2023-06-14T06:04:18;18.90;49.00
44851;DHT22;30583;48.714;9.386;2023-06-14T06:06:44;19.00;48.80
44851;DHT22;30583;48.714;9.386;2023-06-14T06:09:10;18.90;48.70
44851;DHT22;30583;48.714;9.386;2023-06-14T06:11:36;19.00;48.80
44851;DHT22;30583;48.714;9.386;2023-06-14T06:14:01;19.10;48.60
44851;DHT22;30583;48.714;9.386;2023-06-14T06:16:27;18.60;49.70
44851;DHT22;30583;48.714;9.386;2023-06-14T06:18:52;18.60;49.60
44851;DHT22;30583;48.714;9.386;2023-06-14T06:21:18;18.70;48.80
44851;DHT22;30583;48.714;9.386;2023-06-14T06:23:43;19.00;48.10
44851;DHT22;30583;48.714;9.386;2023-06-14T06:26:09;19.10;48.10
44851;DHT22;30583;48.714;9.386;2023-06-14T06:28:35;18.70;49.40
44851;DHT22;30583;48.714;9.386;2023-06-14T06:31:00;18.80;49.20
44851;DHT22;30583;48.714;9.386;2023-06-14T06:33:26;19.10;48.80
44851;DHT22;30583;48.714;9.386;2023-06-14T06:35:52;18.70;49.70
44851;DHT22;30583;48.714;9.386;2023-06-14T06:38:17;19.10;48.40
44851;DHT22;30583;48.714;9.386;2023-06-14T06:40:44;19.50;47.70
44851;DHT22;30583;48.714;9.386;2023-06-14T06:43:10;19.40;47.80
44851;DHT22;30583;48.714;9.386;2023-06-14T06:45:39;19.60;47.40
44851;DHT22;30583;48.714;9.386;2023-06-14T06:48:05;19.60;47.20
44851;DHT22;30583;48.714;9.386;2023-06-14T06:50:30;19.60;47.00
44851;DHT22;30583;48.714;9.386;2023-06-14T06:52:56;19.50;47.00
44851;DHT22;30583;48.714;9.386;2023-06-14T06:55:22;19.70;46.30
44851;DHT22;30583;48.714;9.386;2023-06-14T06:57:47;19.60;46.60
44851;DHT22;30583;48.714;9.386;2023-06-14T07:00:13;19.70;46.20
44851;DHT22;30583;48.714;9.386;2023-06-14T07:02:39;19.60;46.20
44851;DHT22;30583;48.714;9.386;2023-06-14T07:05:04;19.70;46.40
44851;DHT22;30583;48.714;9.386;2023-06-14T07:07:31;19.50;46.90
44851;DHT22;30583;48.714;9.386;2023-06-14T07:09:56;19.60;46.70
44851;DHT22;30583;48.714;9.386;2023-06-14T07:12:23;19.60;46.90
44851;DHT22;30583;48.714;9.386;2023-06-14T07:14:48;19.90;46.20
44851;DHT22;30583;48.714;9.386;2023-06-14T07:17:14;20.00;46.10
44851;DHT22;30583;48.714;9.386;2023-06-14T07:19:40;19.90;47.50
44851;DHT22;30583;48.714;9.386;2023-06-14T07:22:05;20.10;47.80
44851;DHT22;30583;48.714;9.386;2023-06-14T07:24:31;20.70;46.60
44851;DHT22;30583;48.714;9.386;2023-06-14T07:26:56;20.80;45.40
44851;DHT22;30583;48.714;9.386;2023-06-14T07:29:22;20.70;45.50
44851;DHT22;30583;48.714;9.386;2023-06-14T07:31:47;20.60;45.10
44851;DHT22;30583;48.714;9.386;2023-06-14T07:34:13;20.70;45.40
44851;DHT22;30583;48.714;9.386;2023-06-14T07:36:39;20.90;44.60
44851;DHT22;30583;48.714;9.386;2023-06-14T07:39:05;21.20;44.60
44851;DHT22;30583;48.714;9.386;2023-06-14T07:41:32;21.30;44.80
44851;DHT22;30583;48.714;9.386;2023-06-14T07:43:58;21.20;43.60
44851;DHT22;30583;48.714;9.386;2023-06-14T07:46:23;21.40;43.20
44851;DHT22;30583;48.714;9.386;2023-06-14T07:48:49;21.30;43.80
44851;DHT22;30583;48.714;9.386;2023-06-14T07:51:15;21.50;44.30
44851;DHT22;30583;48.714;9.386;2023-06-14T07:53:40;21.40;43.60
44851;DHT22;30583;48.714;9.386;2023-06-14T07:56:07;21.70;43.70
44851;DHT22;30583;48.714;9.386;2023-06-14T07:58:32;21.70;43.20
44851;DHT22;30583;48.714;9.386;2023-06-14T08:00:58;21.70;42.80
44851;DHT22;30583;48.714;9.386;2023-06-14T08:03:24;21.50;43.10
44851;DHT22;30583;48.714;9.386;2023-06-14T08:05:50;21.80;42.70
44851;DHT22;30583;48.714;9.386;2023-06-14T08:08:16;22.10;42.80
44851;DHT22;30583;48.714;9.386;2023-06-14T08:10:42;22.10;42.50
44851;DHT22;30583;48.714;9.386;2023-06-14T08:13:07;22.20;42.30
44851;DHT22;30583;48.714;9.386;2023-06-14T08:15:34;22.30;41.60
44851;DHT22;30583;48.714;9.386;2023-06-14T08:18:00;22.00;41.60
44851;DHT22;30583;48.714;9.386;2023-06-14T08:20:26;22.20;41.70
44851;DHT22;30583;48.714;9.386;2023-06-14T08:22:52;22.40;41.80
44851;DHT22;30583;48.714;9.386;2023-06-14T08:25:20;22.50;40.60
44851;DHT22;30583;48.714;9.386;2023-06-14T08:27:46;22.50;40.80
44851;DHT22;30583;48.714;9.386;2023-06-14T08:30:12;22.50;39.70
44851;DHT22;30583;48.714;9.386;2023-06-14T08:32:38;22.60;39.50
44851;DHT22;30583;48.714;9.386;2023-06-14T08:35:04;22.80;40.00
44851;DHT22;30583;48.714;9.386;2023-06-14T08:37:30;22.90;39.30
44851;DHT22;30583;48.714;9.386;2023-06-14T08:39:56;23.10;39.50
44851;DHT22;30583;48.714;9.386;2023-06-14T08:42:24;23.00;38.90
44851;DHT22;30583;48.714;9.386;2023-06-14T08:44:49;23.20;39.40
44851;DHT22;30583;48.714;9.386;2023-06-14T08:47:15;23.30;38.40
44851;DHT22;30583;48.714;9.386;2023-06-14T08:49:45;23.20;38.60
44851;DHT22;30583;48.714;9.386;2023-06-14T08:52:13;23.40;38.20
44851;DHT22;30583;48.714;9.386;2023-06-14T08:54:44;23.20;38.20
44851;DHT22;30583;48.714;9.386;2023-06-14T08:57:11;23.30;38.60
44851;DHT22;30583;48.714;9.386;2023-06-14T08:59:47;23.40;37.90
44851;DHT22;30583;48.714;9.386;2023-06-14T09:02:18;23.40;37.50
44851;DHT22;30583;48.714;9.386;2023-06-14T09:04:44;23.60;37.60
44851;DHT22;30583;48.714;9.386;2023-06-14T09:07:11;23.70;37.30
44851;DHT22;30583;48.714;9.386;2023-06-14T09:09:39;23.70;36.90
44851;DHT22;30583;48.714;9.386;2023-06-14T09:12:10;23.80;37.20
44851;DHT22;30583;48.714;9.386;2023-06-14T09:14:37;24.00;37.30
44851;DHT22;30583;48.714;9.386;2023-06-14T09:17:05;23.80;36.50
44851;DHT22;30583;48.714;9.386;2023-06-14T09:19:31;24.00;36.40
44851;DHT22;30583;48.714;9.386;2023-06-14T09:21:57;24.20;36.10
44851;DHT22;30583;48.714;9.386;2023-06-14T09:24:24;24.40;34.20
44851;DHT22;30583;48.714;9.386;2023-06-14T09:26:51;24.50;34.10
44851;DHT22;30583;48.714;9.386;2023-06-14T09:29:18;24.30;34.90
44851;DHT22;30583;48.714;9.386;2023-06-14T09:31:46;24.60;34.50
44851;DHT22;30583;48.714;9.386;2023-06-14T09:34:12;24.70;34.60
44851;DHT22;30583;48.714;9.386;2023-06-14T09:36:39;24.70;34.40
44851;DHT22;30583;48.714;9.386;2023-06-14T09:39:05;24.60;34.90
44851;DHT22;30583;48.714;9.386;2023-06-14T09:43:59;24.60;34.30
44851;DHT22;30583;48.714;9.386;2023-06-14T09:46:27;24.90;34.20
44851;DHT22;30583;48.714;9.386;2023-06-14T09:48:52;25.00;31.90
44851;DHT22;30583;48.714;9.386;2023-06-14T09:51:18;25.30;32.70
44851;DHT22;30583;48.714;9.386;2023-06-14T09:53:51;25.20;32.10
44851;DHT22;30583;48.714;9.386;2023-06-14T09:56:26;25.50;32.20
44851;DHT22;30583;48.714;9.386;2023-06-14T09:58:56;25.60;32.70
44851;DHT22;30583;48.714;9.386;2023-06-14T10:01:24;25.40;32.10
44851;DHT22;30583;48.714;9.386;2023-06-14T10:04:00;25.50;31.30
44851;DHT22;30583;48.714;9.386;2023-06-14T10:06:26;25.40;31.30
44851;DHT22;30583;48.714;9.386;2023-06-14T10:08:57;25.70;30.80
44851;DHT22;30583;48.714;9.386;2023-06-14T10:11:23;26.00;30.80
44851;DHT22;30583;48.714;9.386;2023-06-14T10:13:50;25.80;31.20
44851;DHT22;30583;48.714;9.386;2023-06-14T10:16:30;25.70;31.30
44851;DHT22;30583;48.714;9.386;2023-06-14T10:19:27;25.10;33.20
44851;DHT22;30583;48.714;9.386;2023-06-14T10:22:23;24.70;33.90
44851;DHT22;30583;48.714;9.386;2023-06-14T10:24:50;24.30;34.10
44851;DHT22;30583;48.714;9.386;2023-06-14T10:27:16;24.40;34.10
44851;DHT22;30583;48.714;9.386;2023-06-14T10:32:24;24.30;33.50
44851;DHT22;30583;48.714;9.386;2023-06-14T10:35:06;24.50;33.70
44851;DHT22;30583;48.714;9.386;2023-06-14T10:37:34;24.70;33.60
44851;DHT22;30583;48.714;9.386;2023-06-14T10:40:01;24.70;33.70
44851;DHT22;30583;48.714;9.386;2023-06-14T10:42:33;24.50;33.90
44851;DHT22;30583;48.714;9.386;2023-06-14T10:45:00;24.70;34.30
44851;DHT22;30583;48.714;9.386;2023-06-14T10:49:53;25.10;33.10
44851;DHT22;30583;48.714;9.386;2023-06-14T10:52:27;25.20;33.40
44851;DHT22;30583;48.714;9.386;2023-06-14T10:55:12;25.70;32.40
44851;DHT22;30583;48.714;9.386;2023-06-14T11:00:11;25.40;33.90
44851;DHT22;30583;48.714;9.386;2023-06-14T11:11:07;26.10;32.30
44851;DHT22;30583;48.714;9.386;2023-06-14T11:13:33;26.10;32.30
44851;DHT22;30583;48.714;9.386;2023-06-14T11:15:59;26.40;31.00
44851;DHT22;30583;48.714;9.386;2023-06-14T11:18:25;26.50;31.10
44851;DHT22;30583;48.714;9.386;2023-06-14T11:20:52;26.80;29.90
44851;DHT22;30583;48.714;9.386;2023-06-14T11:23:18;26.50;31.00
44851;DHT22;30583;48.714;9.386;2023-06-14T11:25:49;26.40;31.20
44851;DHT22;30583;48.714;9.386;2023-06-14T11:28:14;27.10;30.40
44851;DHT22;30583;48.714;9.386;2023-06-14T11:30:40;26.60;30.90
44851;DHT22;30583;48.714;9.386;2023-06-14T11:33:09;26.50;31.10
44851;DHT22;30583;48.714;9.386;2023-06-14T11:35:36;26.90;31.20
44851;DHT22;30583;48.714;9.386;2023-06-14T11:38:02;26.90;30.40
44851;DHT22;30583;48.714;9.386;2023-06-14T11:40:27;27.10;30.80
44851;DHT22;30583;48.714;9.386;2023-06-14T11:43:01;27.30;30.70
44851;DHT22;30583;48.714;9.386;2023-06-14T11:45:28;27.10;30.60
44851;DHT22;30583;48.714;9.386;2023-06-14T11:47:55;27.40;29.90
44851;DHT22;30583;48.714;9.386;2023-06-14T11:50:24;27.20;29.60
44851;DHT22;30583;48.714;9.386;2023-06-14T11:52:54;26.60;30.20
44851;DHT22;30583;48.714;9.386;2023-06-14T11:55:21;26.20;30.50
44851;DHT22;30583;48.714;9.386;2023-06-14T11:57:47;25.80;31.30
44851;DHT22;30583;48.714;9.386;2023-06-14T12:00:13;25.80;31.50
44851;DHT22;30583;48.714;9.386;2023-06-14T12:02:41;25.70;31.80
44851;DHT22;30583;48.714;9.386;2023-06-14T12:05:07;25.80;31.70
44851;DHT22;30583;48.714;9.386;2023-06-14T12:07:38;25.70;31.90
44851;DHT22;30583;48.714;9.386;2023-06-14T12:10:06;25.70;31.30
44851;DHT22;30583;48.714;9.386;2023-06-14T12:12:38;26.20;32.20
44851;DHT22;30583;48.714;9.386;2023-06-14T12:15:05;26.20;30.60
44851;DHT22;30583;48.714;9.386;2023-06-14T12:17:38;26.10;31.30
44851;DHT22;30583;48.714;9.386;2023-06-14T12:20:11;26.20;31.70
44851;DHT22;30583;48.714;9.386;2023-06-14T12:22:39;26.80;30.20
44851;DHT22;30583;48.714;9.386;2023-06-14T12:25:05;27.20;30.20
44851;DHT22;30583;48.714;9.386;2023-06-14T12:27:31;27.30;29.60
44851;DHT22;30583;48.714;9.386;2023-06-14T12:30:00;27.70;29.80
44851;DHT22;30583;48.714;9.386;2023-06-14T12:32:26;27.60;29.10
44851;DHT22;30583;48.714;9.386;2023-06-14T12:34:52;27.70;28.90
44851;DHT22;30583;48.714;9.386;2023-06-14T12:37:18;27.50;29.40
44851;DHT22;30583;48.714;9.386;2023-06-14T12:39:43;27.60;28.20
44851;DHT22;30583;48.714;9.386;2023-06-14T12:42:09;27.50;29.00
44851;DHT22;30583;48.714;9.386;2023-06-14T12:44:34;27.70;28.70
44851;DHT22;30583;48.714;9.386;2023-06-14T12:47:05;27.50;29.30
44851;DHT22;30583;48.714;9.386;2023-06-14T12:49:31;27.10;29.80
44851;DHT22;30583;48.714;9.386;2023-06-14T12:51:57;26.50;30.50
44851;DHT22;30583;48.714;9.386;2023-06-14T12:54:22;26.10;31.00
44851;DHT22;30583;48.714;9.386;2023-06-14T12:56:51;25.90;31.30
44851;DHT22;30583;48.714;9.386;2023-06-14T12:59:17;26.00;31.20
44851;DHT22;30583;48.714;9.386;2023-06-14T13:01:43;26.60;31.30
44851;DHT22;30583;48.714;9.386;2023-06-14T13:04:10;26.70;31.50
44851;DHT22;30583;48.714;9.386;2023-06-14T13:06:36;27.20;30.30
44851;DHT22;30583;48.714;9.386;2023-06-14T13:09:01;27.40;29.40
44851;DHT22;30583;48.714;9.386;2023-06-14T13:11:29;27.70;29.40
44851;DHT22;30583;48.714;9.386;2023-06-14T13:13:55;27.90;29.00
44851;DHT22;30583;48.714;9.386;2023-06-14T13:16:20;28.00;28.60
44851;DHT22;30583;48.714;9.386;2023-06-14T13:18:46;28.30;27.60
44851;DHT22;30583;48.714;9.386;2023-06-14T13:21:11;28.20;27.70
44851;DHT22;30583;48.714;9.386;2023-06-14T13:23:37;27.90;27.80
44851;DHT22;30583;48.714;9.386;2023-06-14T13:26:02;28.10;28.10
44851;DHT22;30583;48.714;9.386;2023-06-14T13:28:28;27.90;28.50
44851;DHT22;30583;48.714;9.386;2023-06-14T13:30:54;27.10;29.70
44851;DHT22;30583;48.714;9.386;2023-06-14T13:33:21;26.70;30.30
44851;DHT22;30583;48.714;9.386;2023-06-14T13:35:46;26.50;31.00
44851;DHT22;30583;48.714;9.386;2023-06-14T13:38:14;26.30;31.20
44851;DHT22;30583;48.714;9.386;2023-06-14T13:40:41;26.20;31.50
44851;DHT22;30583;48.714;9.386;2023-06-14T13:43:07;26.20;31.80
44851;DHT22;30583;48.714;9.386;2023-06-14T13:45:32;26.20;31.50
44851;DHT22;30583;48.714;9.386;2023-06-14T13:47:58;26.10;31.90
44851;DHT22;30583;48.714;9.386;2023-06-14T13:50:24;26.00;32.40
44851;DHT22;30583;48.714;9.386;2023-06-14T13:52:49;25.90;32.20
44851;DHT22;30583;48.714;9.386;2023-06-14T13:55:15;26.00;31.50
44851;DHT22;30583;48.714;9.386;2023-06-14T13:57:41;26.10;31.50
44851;DHT22;30583;48.714;9.386;2023-06-14T14:00:07;26.00;31.50
44851;DHT22;30583;48.714;9.386;2023-06-14T14:02:34;26.20;31.50
44851;DHT22;30583;48.714;9.386;2023-06-14T14:04:59;26.90;31.20
44851;DHT22;30583;48.714;9.386;2023-06-14T14:07:25;26.90;30.60
44851;DHT22;30583;48.714;9.386;2023-06-14T14:09:51;26.80;30.40
44851;DHT22;30583;48.714;9.386;2023-06-14T14:12:16;27.00;29.80
44851;DHT22;30583;48.714;9.386;2023-06-14T14:14:42;27.00;30.40
44851;DHT22;30583;48.714;9.386;2023-06-14T14:17:07;27.30;30.20
44851;DHT22;30583;48.714;9.386;2023-06-14T14:19:33;27.40;30.50
44851;DHT22;30583;48.714;9.386;2023-06-14T14:21:59;27.70;30.00
44851;DHT22;30583;48.714;9.386;2023-06-14T14:24:24;27.50;30.30
44851;DHT22;30583;48.714;9.386;2023-06-14T14:26:51;27.50;30.00
44851;DHT22;30583;48.714;9.386;2023-06-14T14:29:19;27.30;30.00
44851;DHT22;30583;48.714;9.386;2023-06-14T14:31:44;27.40;29.50
44851;DHT22;30583;48.714;9.386;2023-06-14T14:34:10;27.50;29.70
44851;DHT22;30583;48.714;9.386;2023-06-14T14:36:36;27.50;29.60
44851;DHT22;30583;48.714;9.386;2023-06-14T14:39:03;27.60;29.80
44851;DHT22;30583;48.714;9.386;2023-06-14T14:41:29;27.90;29.10
44851;DHT22;30583;48.714;9.386;2023-06-14T14:43:55;28.00;29.40
44851;DHT22;30583;48.714;9.386;2023-06-14T14:46:20;27.90;30.30
44851;DHT22;30583;48.714;9.386;2023-06-14T14:48:46;27.70;29.90
44851;DHT22;30583;48.714;9.386;2023-06-14T14:51:11;27.80;30.20
44851;DHT22;30583;48.714;9.386;2023-06-14T14:53:37;27.80;29.60
44851;DHT22;30583;48.714;9.386;2023-06-14T14:56:02;27.90;30.00
44851;DHT22;30583;48.714;9.386;2023-06-14T14:58:28;27.70;29.40
44851;DHT22;30583;48.714;9.386;2023-06-14T15:00:53;27.10;30.50
44851;DHT22;30583;48.714;9.386;2023-06-14T15:03:19;26.90;30.60
44851;DHT22;30583;48.714;9.386;2023-06-14T15:05:45;26.80;30.80
44851;DHT22;30583;48.714;9.386;2023-06-14T15:08:10;26.60;31.00
44851;DHT22;30583;48.714;9.386;2023-06-14T15:10:38;26.40;31.50
44851;DHT22;30583;48.714;9.386;2023-06-14T15:13:06;26.70;31.40
44851;DHT22;30583;48.714;9.386;2023-06-14T15:15:32;26.60;31.50
44851;DHT22;30583;48.714;9.386;2023-06-14T15:17:59;26.90;31.20
44851;DHT22;30583;48.714;9.386;2023-06-14T15:20:24;26.90;30.90
44851;DHT22;30583;48.714;9.386;2023-06-14T15:22:50;26.70;31.30
44851;DHT22;30583;48.714;9.386;2023-06-14T15:25:16;26.60;31.10
44851;DHT22;30583;48.714;9.386;2023-06-14T15:27:42;27.00;30.50
44851;DHT22;30583;48.714;9.386;2023-06-14T15:30:07;27.20;30.30
44851;DHT22;30583;48.714;9.386;2023-06-14T15:32:33;27.30;30.40
44851;DHT22;30583;48.714;9.386;2023-06-14T15:34:59;27.30;29.90
44851;DHT22;30583;48.714;9.386;2023-06-14T15:37:24;27.10;30.30
44851;DHT22;30583;48.714;9.386;2023-06-14T15:39:50;26.90;30.00
44851;DHT22;30583;48.714;9.386;2023-06-14T15:42:15;26.80;30.40
44851;DHT22;30583;48.714;9.386;2023-06-14T15:44:41;26.40;31.10
44851;DHT22;30583;48.714;9.386;2023-06-14T15:47:07;26.20;31.60
44851;DHT22;30583;48.714;9.386;2023-06-14T15:49:33;26.20;31.60
44851;DHT22;30583;48.714;9.386;2023-06-14T15:51:59;26.20;31.90